createdAt,value
2019-03-25T00:01:49.156Z,57.69
2019-03-25T00:04:19.280Z,58.31
2019-03-25T00:06:49.334Z,58.91
2019-03-25T00:09:19.464Z,59.28
2019-03-25T00:11:49.526Z,59.50
2019-03-25T00:14:19.647Z,60.09
2019-03-25T00:16:49.685Z,60.56
2019-03-25T00:19:19.744Z,60.66
2019-03-25T00:21:49.791Z,61.18
2019-03-25T00:24:19.874Z,61.34
2019-03-25T00:26:50.967Z,61.65
2019-03-25T00:29:21.052Z,61.43
2019-03-25T00:31:51.106Z,61.70
2019-03-25T00:34:21.159Z,61.77
2019-03-25T00:36:51.209Z,62.08
2019-03-25T00:39:21.250Z,62.02
2019-03-25T00:41:51.311Z,62.09
2019-03-25T00:44:21.355Z,61.89
2019-03-25T00:46:51.418Z,61.46
2019-03-25T00:49:21.464Z,61.52
2019-03-25T00:51:51.545Z,61.07
2019-03-25T00:54:21.593Z,60.48
2019-03-25T00:56:51.642Z,60.04
2019-03-25T00:59:21.695Z,59.96
2019-03-25T01:01:51.739Z,59.92
2019-03-25T01:04:21.811Z,60.19
2019-03-25T01:06:51.860Z,60.73
2019-03-25T01:09:21.923Z,60.24
2019-03-25T01:11:51.961Z,60.18
2019-03-25T01:14:22.041Z,60.25
2019-03-25T01:16:52.080Z,60.51
2019-03-25T01:19:22.224Z,59.86
2019-03-25T01:21:52.310Z,59.98
2019-03-25T01:24:23.326Z,59.28
2019-03-25T01:26:53.390Z,59.76
2019-03-25T01:29:23.428Z,60.32
2019-03-25T01:31:53.483Z,60.44
2019-03-25T01:34:23.535Z,59.72
2019-03-25T01:36:53.621Z,60.21
2019-03-25T01:39:23.672Z,59.68
2019-03-25T01:41:53.745Z,60.12
2019-03-25T01:44:23.785Z,59.81
2019-03-25T01:46:53.829Z,58.96
2019-03-25T01:49:23.898Z,59.40
2019-03-25T01:51:53.928Z,59.32
2019-03-25T01:54:24.000Z,58.87
2019-03-25T01:56:54.040Z,58.85
2019-03-25T01:59:24.125Z,58.87
2019-03-25T02:01:54.175Z,59.05
2019-03-25T02:04:24.266Z,58.54
2019-03-25T02:06:54.309Z,58.84
2019-03-25T02:09:24.359Z,61.04
2019-03-25T02:11:54.406Z,61.31
2019-03-25T02:14:24.451Z,62.12
2019-03-25T02:16:54.507Z,63.31
2019-03-25T02:19:24.567Z,63.65
2019-03-25T02:21:54.623Z,64.33
2019-03-25T02:24:24.681Z,63.98
2019-03-25T02:26:54.743Z,64.28
2019-03-25T02:29:25.018Z,65.27
2019-03-25T02:31:55.045Z,64.75
2019-03-25T02:34:25.134Z,64.79
2019-03-25T02:36:55.160Z,64.45
2019-03-25T02:39:25.269Z,64.67
2019-03-25T02:41:55.276Z,64.55
2019-03-25T02:44:26.302Z,64.23
2019-03-25T02:46:56.391Z,65.40
2019-03-25T02:49:26.439Z,65.04
2019-03-25T02:51:56.508Z,64.71
2019-03-25T02:54:26.559Z,66.05
2019-03-25T02:56:56.637Z,65.78
2019-03-25T02:59:26.703Z,65.87
2019-03-25T03:01:56.749Z,68.68
2019-03-25T03:04:27.913Z,70.17
2019-03-25T03:06:57.957Z,70.98
2019-03-25T03:09:28.019Z,70.76
2019-03-25T03:11:58.057Z,71.85
2019-03-25T03:14:28.156Z,72.20
2019-03-25T03:16:58.207Z,72.73
2019-03-25T03:19:28.271Z,71.97
2019-03-25T03:21:58.330Z,73.27
2019-03-25T03:24:28.364Z,72.87
2019-03-25T03:26:58.428Z,71.84
2019-03-25T03:29:28.480Z,73.12
2019-03-25T03:31:58.585Z,72.76
2019-03-25T03:34:28.628Z,72.21
2019-03-25T03:36:58.686Z,72.46
2019-03-25T03:39:28.754Z,72.84
2019-03-25T03:41:58.809Z,72.44
2019-03-25T03:44:28.865Z,73.47
2019-03-25T03:46:58.915Z,73.69
2019-03-25T03:49:28.996Z,72.59
2019-03-25T03:51:59.039Z,73.31
2019-03-25T03:54:29.147Z,73.70
2019-03-25T03:56:59.216Z,73.35
2019-03-25T03:59:29.348Z,72.84
2019-03-25T04:01:59.429Z,72.87
2019-03-25T04:04:30.120Z,73.24
2019-03-25T04:07:00.188Z,73.05
2019-03-25T04:09:30.331Z,73.11
2019-03-25T04:12:00.369Z,73.06
2019-03-25T04:14:30.409Z,72.83
2019-03-25T04:17:00.487Z,72.45
2019-03-25T04:19:30.543Z,72.31
2019-03-25T04:22:00.607Z,71.96
2019-03-25T04:24:30.648Z,70.91
2019-03-25T04:27:00.714Z,70.72
2019-03-25T04:29:30.782Z,70.43
2019-03-25T04:32:00.853Z,69.79
2019-03-25T04:34:30.905Z,70.07
2019-03-25T04:37:00.957Z,69.91
2019-03-25T04:39:31.034Z,69.95
2019-03-25T04:42:01.091Z,69.26
2019-03-25T04:44:31.143Z,69.35
2019-03-25T04:47:01.203Z,70.71
2019-03-25T04:49:31.257Z,70.60
2019-03-25T04:52:01.339Z,70.33
2019-03-25T04:54:31.370Z,70.01
2019-03-25T04:57:01.446Z,70.80
2019-03-25T04:59:31.505Z,70.38
2019-03-25T05:02:01.594Z,70.00
2019-03-25T05:04:31.644Z,69.87
2019-03-25T05:07:01.702Z,69.66
2019-03-25T05:09:31.755Z,69.67
2019-03-25T05:12:01.813Z,70.16
2019-03-25T05:14:31.855Z,70.02
2019-03-25T05:17:01.905Z,69.70
2019-03-25T05:19:31.966Z,69.46
2019-03-25T05:22:02.015Z,70.01
2019-03-25T05:24:32.098Z,69.94
2019-03-25T05:27:02.227Z,69.45
2019-03-25T05:29:32.266Z,68.75
2019-03-25T05:32:02.344Z,68.37
2019-03-25T05:34:32.395Z,68.40
2019-03-25T05:37:02.459Z,68.83
2019-03-25T05:39:32.490Z,69.23
2019-03-25T05:42:02.577Z,69.37
2019-03-25T05:44:32.615Z,68.66
2019-03-25T05:47:02.686Z,68.98
2019-03-25T05:49:32.729Z,68.98
2019-03-25T05:52:02.784Z,69.13
2019-03-25T05:54:32.843Z,68.89
2019-03-25T05:57:03.165Z,68.35
2019-03-25T05:59:34.397Z,69.28
2019-03-25T06:02:05.539Z,69.34
2019-03-25T06:04:35.585Z,70.08
2019-03-25T06:07:05.704Z,70.45
2019-03-25T06:09:35.748Z,71.71
2019-03-25T06:12:05.796Z,71.15
2019-03-25T06:14:36.208Z,71.52
2019-03-25T06:17:06.382Z,72.43
2019-03-25T06:19:36.412Z,71.19
2019-03-25T06:22:06.496Z,71.02
2019-03-25T06:24:36.570Z,71.99
2019-03-25T06:27:14.067Z,71.78
2019-03-25T06:29:38.502Z,71.93
2019-03-25T06:32:08.667Z,72.08
2019-03-25T06:34:38.740Z,70.90
2019-03-25T06:37:08.888Z,71.46
2019-03-25T06:39:38.947Z,70.44
2019-03-25T06:42:08.996Z,70.49
2019-03-25T06:44:39.154Z,70.79
2019-03-25T06:47:09.220Z,69.98
2019-03-25T06:49:39.276Z,70.65
2019-03-25T06:52:10.509Z,70.59
2019-03-25T06:54:40.566Z,70.08
2019-03-25T06:57:10.700Z,69.94
2019-03-25T06:59:43.043Z,69.53
2019-03-25T07:02:15.932Z,69.92
2019-03-25T07:04:46.585Z,70.19
2019-03-25T07:07:16.648Z,70.46
2019-03-25T07:09:46.699Z,69.94
2019-03-25T07:12:16.756Z,69.30
2019-03-25T07:14:47.418Z,69.16
2019-03-25T07:17:17.420Z,69.19
2019-03-25T07:19:47.490Z,69.55
2019-03-25T07:22:17.585Z,68.78
2019-03-25T07:24:50.845Z,69.26
2019-03-25T07:27:21.020Z,69.43
2019-03-25T07:29:51.110Z,69.41
2019-03-25T07:32:21.731Z,69.50
2019-03-25T07:34:55.729Z,68.87
2019-03-25T07:37:25.393Z,68.90
2019-03-25T07:39:55.479Z,69.48
2019-03-25T07:42:25.932Z,69.01
2019-03-25T07:44:56.492Z,68.81
2019-03-25T07:47:26.709Z,68.94
2019-03-25T07:49:57.291Z,68.98
2019-03-25T07:52:30.242Z,69.53
2019-03-25T07:55:00.503Z,68.88
2019-03-25T07:57:30.558Z,69.17
2019-03-25T08:00:00.620Z,69.12
2019-03-25T08:02:30.738Z,70.16
2019-03-25T08:05:00.802Z,70.25
2019-03-25T08:07:30.872Z,70.06
2019-03-25T08:10:00.937Z,70.51
2019-03-25T08:12:31.010Z,71.48
2019-03-25T08:15:01.092Z,72.68
2019-03-25T08:17:31.432Z,73.08
2019-03-25T08:20:01.575Z,72.83
2019-03-25T08:22:31.653Z,72.65
2019-03-25T08:25:01.708Z,72.59
2019-03-25T08:27:33.489Z,72.13
2019-03-25T08:30:03.750Z,71.57
2019-03-25T08:32:33.831Z,71.80
2019-03-25T08:35:03.903Z,71.58
2019-03-25T08:37:33.989Z,71.73
2019-03-25T08:40:04.478Z,71.75
2019-03-25T08:42:34.510Z,71.80
2019-03-25T08:45:05.648Z,72.38
2019-03-25T08:47:35.720Z,72.00
2019-03-25T08:50:06.815Z,72.29
2019-03-25T08:52:36.871Z,72.17
2019-03-25T08:55:07.135Z,71.67
2019-03-25T08:57:37.339Z,71.78
2019-03-25T09:00:07.977Z,71.87
2019-03-25T09:02:38.046Z,71.53
2019-03-25T09:05:09.462Z,72.34
2019-03-25T09:07:39.766Z,72.65
2019-03-25T09:10:10.250Z,72.32
2019-03-25T09:12:40.403Z,72.22
2019-03-25T09:15:10.831Z,70.68
2019-03-25T09:17:40.910Z,71.13
2019-03-25T09:20:11.310Z,70.75
2019-03-25T09:22:41.374Z,70.25
2019-03-25T09:25:11.663Z,70.30
2019-03-25T09:27:41.729Z,70.50
2019-03-25T09:30:12.102Z,70.64
2019-03-25T09:32:43.908Z,71.32
2019-03-25T09:35:15.064Z,72.01
2019-03-25T09:37:45.123Z,71.99
2019-03-25T09:40:15.303Z,72.53
2019-03-25T09:42:45.451Z,72.05
2019-03-25T09:45:15.676Z,71.99
2019-03-25T09:47:45.749Z,71.96
2019-03-25T09:50:15.919Z,72.59
2019-03-25T09:52:45.985Z,72.36
2019-03-25T09:55:16.717Z,73.71
2019-03-25T09:57:46.890Z,73.87
2019-03-25T10:00:19.202Z,74.97
2019-03-25T10:02:49.318Z,74.14
2019-03-25T10:05:19.391Z,74.34
2019-03-25T10:07:49.507Z,73.61
2019-03-25T10:10:19.567Z,72.93
2019-03-25T10:12:49.745Z,73.84
2019-03-25T10:15:20.970Z,73.84
2019-03-25T10:17:51.013Z,73.41
2019-03-25T10:20:21.260Z,72.39
2019-03-25T10:22:57.243Z,72.73
2019-03-25T10:25:27.482Z,72.60
2019-03-25T10:28:00.146Z,71.14
2019-03-25T10:30:32.076Z,71.82
2019-03-25T10:33:02.295Z,70.93
2019-03-25T10:35:32.448Z,69.94
2019-03-25T10:38:02.584Z,68.91
2019-03-25T10:40:33.187Z,70.04
2019-03-25T10:43:03.271Z,69.14
2019-03-25T10:45:33.336Z,69.92
2019-03-25T10:48:03.541Z,70.31
2019-03-25T10:50:33.597Z,68.96
2019-03-25T10:53:04.801Z,68.72
2019-03-25T10:55:34.905Z,69.41
2019-03-25T10:58:05.025Z,70.28
2019-03-25T11:00:35.192Z,70.58
2019-03-25T11:03:05.305Z,69.90
2019-03-25T11:05:36.375Z,70.33
2019-03-25T11:08:07.595Z,69.36
2019-03-25T11:10:37.641Z,70.64
2019-03-25T11:13:07.808Z,70.31
2019-03-25T11:15:37.865Z,71.94
2019-03-25T11:18:07.950Z,70.39
2019-03-25T11:20:38.560Z,69.65
2019-03-25T11:23:08.684Z,70.68
2019-03-25T11:25:38.735Z,69.31
2019-03-25T11:28:08.812Z,69.05
2019-03-25T11:30:55.901Z,68.24
2019-03-25T11:33:26.059Z,69.31
2019-03-25T11:35:56.121Z,68.01
2019-03-25T11:38:26.247Z,69.04
2019-03-25T11:40:57.326Z,68.13
2019-03-25T11:43:27.518Z,67.66
2019-03-25T11:45:57.645Z,68.98
2019-03-25T11:48:27.687Z,67.90
2019-03-25T11:50:57.834Z,66.91
2019-03-25T11:53:27.895Z,66.27
2019-03-25T11:55:57.977Z,67.20
2019-03-25T11:58:28.051Z,67.00
2019-03-25T12:00:58.244Z,66.86
2019-03-25T12:03:28.302Z,66.32
2019-03-25T12:05:58.367Z,65.12
2019-03-25T12:08:28.502Z,66.58
2019-03-25T12:10:58.583Z,66.59
2019-03-25T12:13:28.693Z,63.41
2019-03-25T12:15:58.801Z,63.32
2019-03-25T12:18:28.870Z,64.17
2019-03-25T12:20:58.950Z,64.48
2019-03-25T12:23:29.064Z,64.70
2019-03-25T12:25:59.124Z,64.96
2019-03-25T12:28:29.238Z,65.79
2019-03-25T12:30:59.283Z,66.59
2019-03-25T12:33:29.334Z,65.57
2019-03-25T12:35:59.409Z,66.29
2019-03-25T12:38:29.587Z,65.86
2019-03-25T12:40:59.691Z,65.29
2019-03-25T12:43:29.806Z,64.21
2019-03-25T12:45:59.921Z,62.90
2019-03-25T12:48:30.001Z,62.94
2019-03-25T12:51:00.606Z,62.53
2019-03-25T12:53:30.681Z,61.64
2019-03-25T12:56:00.773Z,61.81
2019-03-25T12:58:30.831Z,63.45
2019-03-25T13:01:00.991Z,63.36
2019-03-25T13:03:31.064Z,62.86
2019-03-25T13:06:01.139Z,63.56
2019-03-25T13:08:33.402Z,63.73
2019-03-25T13:11:02.986Z,63.05
2019-03-25T13:13:33.089Z,63.86
2019-03-25T13:16:03.150Z,64.40
2019-03-25T13:18:33.215Z,66.92
2019-03-25T13:21:03.289Z,66.46
2019-03-25T13:23:33.338Z,65.51
2019-03-25T13:26:03.423Z,64.88
2019-03-25T13:28:33.501Z,65.38
2019-03-25T13:31:03.684Z,62.49
2019-03-25T13:33:33.794Z,61.22
2019-03-25T13:36:03.837Z,61.94
2019-03-25T13:38:33.886Z,64.97
2019-03-25T13:41:04.000Z,66.62
2019-03-25T13:43:34.114Z,66.03
2019-03-25T13:46:05.646Z,68.44
2019-03-25T13:48:36.187Z,67.40
2019-03-25T13:51:06.457Z,69.25
2019-03-25T13:53:36.544Z,69.25
2019-03-25T13:56:06.624Z,68.57
2019-03-25T13:58:36.796Z,68.83
2019-03-25T14:01:07.862Z,67.83
2019-03-25T14:03:37.921Z,67.29
2019-03-25T14:06:08.107Z,67.42
2019-03-25T14:08:38.606Z,66.98
2019-03-25T14:11:08.679Z,65.96
2019-03-25T14:13:48.737Z,64.60
2019-03-25T14:16:10.547Z,64.32
2019-03-25T14:18:40.612Z,63.21
2019-03-25T14:21:10.689Z,64.42
2019-03-25T14:23:40.771Z,64.75
2019-03-25T14:26:10.828Z,69.15
2019-03-25T14:28:40.908Z,72.27
2019-03-25T14:31:12.500Z,72.03
2019-03-25T14:33:42.491Z,73.36
2019-03-25T14:36:12.558Z,72.76
2019-03-25T14:38:42.867Z,72.20
2019-03-25T14:41:14.453Z,72.40
2019-03-25T14:43:44.579Z,71.26
2019-03-25T14:46:17.313Z,71.04
2019-03-25T14:48:47.777Z,71.64
2019-03-25T14:51:18.281Z,71.23
2019-03-25T14:53:48.322Z,72.16
2019-03-25T14:56:18.387Z,71.51
2019-03-25T14:58:48.455Z,71.28
2019-03-25T15:01:18.514Z,70.08
2019-03-25T15:03:48.642Z,70.61
2019-03-25T15:06:18.708Z,68.87
2019-03-25T15:08:48.793Z,69.05
2019-03-25T15:11:18.874Z,69.33
2019-03-25T15:13:48.972Z,69.59
2019-03-25T15:16:19.060Z,68.79
2019-03-25T15:18:49.104Z,68.76
2019-03-25T15:21:19.218Z,68.18
2019-03-25T15:23:49.303Z,68.05
2019-03-25T15:26:19.609Z,67.99
2019-03-25T15:28:49.709Z,67.47
2019-03-25T15:31:19.944Z,66.89
2019-03-25T15:33:49.983Z,66.97
2019-03-25T15:36:20.042Z,67.79
2019-03-25T15:38:50.092Z,67.08
2019-03-25T15:41:20.155Z,66.46
2019-03-25T15:43:50.202Z,66.09
2019-03-25T15:46:20.374Z,66.93
2019-03-25T15:48:50.437Z,67.22
2019-03-25T15:51:20.607Z,66.84
2019-03-25T15:53:50.698Z,67.28
2019-03-25T15:56:20.742Z,67.36
2019-03-25T15:58:50.874Z,68.01
2019-03-25T16:01:20.920Z,67.13
2019-03-25T16:03:51.335Z,66.10
2019-03-25T16:06:22.472Z,65.90
2019-03-25T16:08:52.556Z,66.21
2019-03-25T16:11:22.659Z,65.78
2019-03-25T16:13:52.720Z,65.50
2019-03-25T16:16:22.867Z,65.66
2019-03-25T16:18:52.941Z,67.56
2019-03-25T16:21:23.119Z,64.25
2019-03-25T16:23:53.241Z,65.29
2019-03-25T16:26:23.308Z,63.06
2019-03-25T16:28:53.419Z,62.66
2019-03-25T16:31:23.530Z,61.36
2019-03-25T16:33:53.630Z,62.47
2019-03-25T16:36:23.764Z,61.42
2019-03-25T16:38:53.837Z,63.36
2019-03-25T16:41:23.885Z,62.52
2019-03-25T16:43:54.022Z,63.45
2019-03-25T16:46:24.175Z,62.15
2019-03-25T16:48:55.270Z,62.85
2019-03-25T16:51:25.608Z,62.88
2019-03-25T16:53:55.837Z,63.31
2019-03-25T16:56:25.885Z,63.53
2019-03-25T16:58:55.979Z,62.35
2019-03-25T17:01:26.043Z,62.60
2019-03-25T17:03:56.144Z,62.71
2019-03-25T17:06:26.193Z,63.79
2019-03-25T17:08:56.271Z,63.00
2019-03-25T17:11:26.327Z,63.33
2019-03-25T17:13:56.379Z,63.12
2019-03-25T17:16:26.852Z,63.22
2019-03-25T17:18:56.902Z,62.83
2019-03-25T17:21:26.959Z,62.58
2019-03-25T17:23:57.028Z,63.16
2019-03-25T17:26:27.084Z,62.70
2019-03-25T17:28:57.229Z,62.90
2019-03-25T17:31:27.323Z,62.34
2019-03-25T17:33:57.406Z,63.10
2019-03-25T17:36:27.498Z,62.93
2019-03-25T17:38:58.581Z,62.99
2019-03-25T17:41:28.643Z,61.89
2019-03-25T17:43:58.755Z,62.71
2019-03-25T17:46:28.807Z,61.84
2019-03-25T17:48:58.910Z,62.21
2019-03-25T17:51:28.978Z,62.08
2019-03-25T17:53:59.081Z,62.09
2019-03-25T17:56:29.169Z,61.95
2019-03-25T17:58:59.216Z,62.13
2019-03-25T18:01:34.508Z,62.30
2019-03-25T18:04:04.888Z,62.47
2019-03-25T18:06:34.987Z,62.57
2019-03-25T18:09:08.373Z,63.30
2019-03-25T18:11:38.485Z,63.08
2019-03-25T18:14:08.614Z,63.34
2019-03-25T18:16:38.774Z,62.96
2019-03-25T18:19:09.801Z,63.10
2019-03-25T18:21:39.882Z,64.01
2019-03-25T18:24:09.979Z,63.58
2019-03-25T18:26:40.081Z,63.21
2019-03-25T18:29:10.161Z,64.17
2019-03-25T18:31:43.587Z,64.62
2019-03-25T18:34:12.102Z,64.80
2019-03-25T18:36:42.155Z,64.74
2019-03-25T18:39:12.239Z,64.52
2019-03-25T18:41:42.301Z,64.47
2019-03-25T18:44:12.416Z,64.26
2019-03-25T18:46:42.441Z,63.67
2019-03-25T18:49:12.515Z,64.03
2019-03-25T18:51:42.570Z,64.41
2019-03-25T18:54:12.732Z,64.09
2019-03-25T18:56:42.839Z,64.14
2019-03-25T18:59:12.963Z,64.45
2019-03-25T19:01:53.854Z,64.27
2019-03-25T19:04:14.959Z,64.41
2019-03-25T19:06:46.735Z,64.07
2019-03-25T19:09:16.808Z,64.10
2019-03-25T19:11:46.908Z,63.97
2019-03-25T19:14:17.287Z,64.50
2019-03-25T19:16:47.335Z,64.25
2019-03-25T19:19:17.514Z,64.57
2019-03-25T19:21:48.301Z,65.17
2019-03-25T19:24:18.473Z,64.48
2019-03-25T19:26:48.608Z,64.67
2019-03-25T19:29:18.650Z,65.23
2019-03-25T19:31:48.751Z,65.04
2019-03-25T19:34:18.756Z,65.45
2019-03-25T19:36:48.869Z,65.45
2019-03-25T19:39:18.934Z,65.43
2019-03-25T19:41:49.019Z,65.37
2019-03-25T19:44:19.038Z,65.59
2019-03-25T19:46:49.165Z,65.92
2019-03-25T19:49:19.256Z,65.60
2019-03-25T19:51:49.337Z,65.74
2019-03-25T19:54:19.394Z,65.47
2019-03-25T19:56:50.459Z,64.90
2019-03-25T19:59:20.647Z,65.67
2019-03-25T20:01:50.719Z,65.58
2019-03-25T20:04:20.778Z,66.10
2019-03-25T20:06:50.926Z,65.82
2019-03-25T20:09:20.972Z,66.00
2019-03-25T20:11:51.089Z,66.07
2019-03-25T20:14:21.141Z,66.15
2019-03-25T20:16:51.247Z,66.93
2019-03-25T20:19:21.360Z,67.06
2019-03-25T20:21:51.403Z,67.78
2019-03-25T20:24:21.482Z,67.36
2019-03-25T20:26:51.578Z,67.26
2019-03-25T20:29:21.649Z,67.21
2019-03-25T20:31:51.719Z,67.69
2019-03-25T20:34:21.777Z,68.22
2019-03-25T20:36:51.893Z,69.18
2019-03-25T20:39:21.883Z,69.18
2019-03-25T20:41:52.094Z,69.31
2019-03-25T20:44:22.114Z,68.83
2019-03-25T20:46:52.243Z,68.54
2019-03-25T20:49:22.305Z,68.26
2019-03-25T20:51:52.450Z,68.76
2019-03-25T20:54:22.547Z,68.19
2019-03-25T20:56:52.629Z,67.42
2019-03-25T20:59:22.724Z,67.81
2019-03-25T21:01:52.869Z,66.62
2019-03-25T21:04:23.049Z,66.37
2019-03-25T21:06:56.092Z,66.92
2019-03-25T21:09:26.370Z,66.83
2019-03-25T21:11:56.479Z,66.32
2019-03-25T21:14:26.557Z,66.62
2019-03-25T21:16:56.618Z,66.43
2019-03-25T21:19:26.759Z,66.25
2019-03-25T21:21:56.813Z,66.28
2019-03-25T21:24:27.027Z,66.49
2019-03-25T21:26:57.078Z,66.51
2019-03-25T21:29:27.309Z,66.08
2019-03-25T21:31:57.400Z,66.16
2019-03-25T21:34:27.539Z,66.45
2019-03-25T21:36:57.657Z,66.62
2019-03-25T21:39:27.730Z,66.58
2019-03-25T21:41:57.795Z,66.42
2019-03-25T21:44:27.875Z,66.42
2019-03-25T21:46:58.039Z,66.60
2019-03-25T21:49:28.162Z,66.49
2019-03-25T21:51:58.194Z,66.41
2019-03-25T21:54:28.390Z,66.47
2019-03-25T21:56:58.451Z,66.58
2019-03-25T21:59:28.668Z,67.04
2019-03-25T22:01:58.682Z,67.08
2019-03-25T22:04:28.740Z,67.66
2019-03-25T22:06:58.832Z,68.20
2019-03-25T22:09:28.907Z,68.29
2019-03-25T22:11:58.984Z,68.33
2019-03-25T22:14:29.061Z,68.36
2019-03-25T22:16:59.136Z,68.98
2019-03-25T22:19:29.284Z,68.66
2019-03-25T22:21:59.365Z,69.36
2019-03-25T22:24:29.569Z,69.36
2019-03-25T22:26:59.626Z,69.75
2019-03-25T22:29:29.712Z,70.22
2019-03-25T22:31:59.802Z,70.21
2019-03-25T22:34:29.872Z,70.32
2019-03-25T22:37:00.042Z,70.26
2019-03-25T22:39:30.106Z,70.67
2019-03-25T22:42:00.400Z,71.45
2019-03-25T22:44:30.483Z,71.18
2019-03-25T22:47:00.543Z,71.25
2019-03-25T22:49:30.612Z,71.18
2019-03-25T22:52:00.669Z,70.84
2019-03-25T22:54:30.767Z,70.97
2019-03-25T22:57:00.826Z,70.91
2019-03-25T22:59:31.965Z,71.61
2019-03-25T23:02:02.037Z,71.45
2019-03-25T23:04:32.084Z,71.46
2019-03-25T23:07:02.163Z,71.15
2019-03-25T23:09:32.231Z,70.97
2019-03-25T23:12:03.903Z,71.02
2019-03-25T23:14:33.990Z,70.67
2019-03-25T23:17:04.031Z,70.29
2019-03-25T23:19:34.169Z,69.73
2019-03-25T23:22:04.248Z,69.75
2019-03-25T23:24:34.308Z,69.67
2019-03-25T23:27:04.385Z,70.31
2019-03-25T23:29:34.441Z,70.35
2019-03-25T23:32:04.527Z,70.30
2019-03-25T23:34:34.586Z,70.24
2019-03-25T23:37:04.629Z,69.89
2019-03-25T23:39:34.687Z,70.00
2019-03-25T23:42:04.725Z,70.20
2019-03-25T23:44:34.800Z,69.93
2019-03-25T23:47:04.930Z,70.13
2019-03-25T23:49:35.004Z,70.74
2019-03-25T23:52:05.253Z,70.79
2019-03-25T23:54:35.287Z,70.35
2019-03-25T23:57:05.457Z,70.47
2019-03-25T23:59:35.511Z,70.24
